KPSK/PSK METAR and TAF weather

Enter ICAO airport designator
Station Type Date Time Source
KPSK METAR 2019/10/23 12:35 UTC NOAA

KPSK 231235Z AUTO 28006KT 10SM CLR 09/04 A3012 RMK AO2 T00940041


Station Type Date Time Source
KPSK Decoded METAR 2019/10/23 12:35 UTC NOAA

Dublin / New River Valley, VA, United States (KPSK) 37-08N 080-41W
Oct 23, 2019 - 08:35 AM EDT / 2019.10.23 1235 UTC
Wind: from the W (280 degrees) at 7 MPH (6 KT):0
Visibility: 10 mile(s):0
Sky conditions: clear
Temperature: 48.9 F (9.4 C)
Dew Point: 39.4 F (4.1 C)
Relative Humidity: 69%
Pressure (altimeter): 30.12 in. Hg (1019 hPa)
ob: KPSK 231235Z AUTO 28006KT 10SM CLR 09/04 A3012 RMK AO2 T00940041
cycle: 12

Station Type Date Time Source
KPSK TAF UTC NOAA

Error!

Example: see airport list